createdAt,value
2023-02-03T00:01:54.117Z,0.32
2023-02-03T00:04:21.309Z,0.28
2023-02-03T00:06:48.916Z,0.40
2023-02-03T00:09:16.207Z,0.20
2023-02-03T00:11:43.378Z,0.15
2023-02-03T00:14:10.534Z,0.30
2023-02-03T00:16:37.813Z,0.50
2023-02-03T00:19:04.992Z,0.40
2023-02-03T00:21:32.107Z,0.40
2023-02-03T00:23:59.273Z,0.25
2023-02-03T00:26:28.716Z,0.30
2023-02-03T00:28:56.149Z,0.40
2023-02-03T00:31:25.078Z,0.40
2023-02-03T00:33:57.171Z,0.40
2023-02-03T00:36:25.821Z,0.40
2023-02-03T00:38:53.658Z,0.35
2023-02-03T00:41:21.905Z,0.40
2023-02-03T00:43:49.556Z,0.40
2023-02-03T00:46:16.969Z,0.40
2023-02-03T00:48:44.199Z,0.30
2023-02-03T00:51:11.400Z,0.43
2023-02-03T00:53:38.572Z,0.30
2023-02-03T00:56:12.531Z,0.50
2023-02-03T00:58:40.648Z,0.30
2023-02-03T01:01:08.540Z,0.65
2023-02-03T01:03:35.880Z,0.40
2023-02-03T01:06:20.023Z,0.50
2023-02-03T01:08:47.945Z,0.65
2023-02-03T01:11:18.852Z,0.30
2023-02-03T01:13:45.985Z,0.52
2023-02-03T01:16:16.285Z,0.50
2023-02-03T01:18:43.863Z,0.40
2023-02-03T01:21:13.998Z,0.38
2023-02-03T01:23:41.246Z,0.35
2023-02-03T01:26:10.941Z,0.35
2023-02-03T01:28:38.821Z,0.30
2023-02-03T01:31:17.443Z,0.40
2023-02-03T01:33:48.855Z,0.40
2023-02-03T01:36:17.562Z,0.30
2023-02-03T01:38:45.758Z,0.30
2023-02-03T01:41:15.979Z,0.50
2023-02-03T01:43:50.384Z,0.30
2023-02-03T01:46:39.232Z,0.32
2023-02-03T01:49:24.537Z,0.35
2023-02-03T01:51:53.526Z,0.40
2023-02-03T01:54:30.878Z,0.20
2023-02-03T01:57:15.973Z,0.40
2023-02-03T01:59:44.206Z,0.40
2023-02-03T02:02:12.716Z,0.40
2023-02-03T02:05:09.773Z,0.52
2023-02-03T02:07:38.898Z,0.50
2023-02-03T02:10:06.836Z,0.60
2023-02-03T02:12:34.168Z,0.38
2023-02-03T02:15:01.805Z,0.50
2023-02-03T02:17:50.916Z,0.40
2023-02-03T02:20:38.423Z,0.50
2023-02-03T02:23:28.384Z,0.30
2023-02-03T02:26:17.476Z,0.40
2023-02-03T02:29:33.850Z,0.65
2023-02-03T02:32:13.251Z,0.30
2023-02-03T02:34:40.388Z,0.38
2023-02-03T02:37:22.767Z,0.32
2023-02-03T02:39:53.009Z,0.40
2023-02-03T02:42:29.300Z,0.40
2023-02-03T02:45:18.570Z,0.20
2023-02-03T02:47:46.353Z,0.82
2023-02-03T02:50:37.485Z,0.50
2023-02-03T02:53:05.841Z,0.30
2023-02-03T02:55:35.013Z,0.22
2023-02-03T02:58:11.555Z,0.20
2023-02-03T03:03:13.613Z,0.30
2023-02-03T03:05:43.477Z,0.30
2023-02-03T03:08:14.206Z,0.30
2023-02-03T03:10:43.378Z,0.28
2023-02-03T03:13:17.302Z,0.50
2023-02-03T03:15:46.902Z,0.40
2023-02-03T03:18:32.276Z,0.30
2023-02-03T03:21:06.055Z,0.20
2023-02-03T03:23:39.558Z,0.30
2023-02-03T03:26:18.245Z,0.25
2023-02-03T03:28:54.055Z,0.47
2023-02-03T03:31:21.434Z,0.28
2023-02-03T03:33:49.138Z,0.28
2023-02-03T03:36:23.826Z,0.28
2023-02-03T03:38:59.478Z,0.30
2023-02-03T03:41:49.840Z,0.38
2023-02-03T03:44:19.228Z,0.20
2023-02-03T03:46:56.010Z,0.30
2023-02-03T03:49:24.751Z,0.30
2023-02-03T03:51:57.781Z,0.30
2023-02-03T03:54:26.269Z,0.20
2023-02-03T03:57:25.563Z,0.35
2023-02-03T03:59:54.007Z,0.30
2023-02-03T04:02:22.965Z,0.30
2023-02-03T04:04:50.767Z,0.20
2023-02-03T04:07:18.152Z,0.30
2023-02-03T04:09:45.318Z,0.35
2023-02-03T04:12:24.991Z,0.30
2023-02-03T04:14:52.211Z,0.30
2023-02-03T04:17:20.412Z,0.30
2023-02-03T04:19:48.525Z,0.20
2023-02-03T04:22:15.792Z,0.30
2023-02-03T04:24:42.893Z,0.40
2023-02-03T04:27:10.080Z,0.40
2023-02-03T04:29:37.255Z,0.30
2023-02-03T04:32:04.688Z,1.10
2023-02-03T04:34:31.935Z,0.30
2023-02-03T04:36:59.121Z,0.40
2023-02-03T04:39:26.270Z,1.00
2023-02-03T04:41:53.438Z,1.10
2023-02-03T04:44:20.645Z,0.20
2023-02-03T04:46:47.870Z,0.30
2023-02-03T04:49:15.076Z,0.40
2023-02-03T04:51:44.130Z,0.40
2023-02-03T04:54:11.713Z,0.28
2023-02-03T04:56:38.955Z,0.30
2023-02-03T04:59:06.160Z,0.40
2023-02-03T05:01:33.422Z,0.30
2023-02-03T05:04:00.653Z,0.55
2023-02-03T05:06:30.060Z,0.50
2023-02-03T05:08:57.225Z,0.20
2023-02-03T05:11:24.946Z,0.90
2023-02-03T05:13:52.130Z,0.40
2023-02-03T05:16:19.400Z,0.30
2023-02-03T05:18:46.713Z,0.30
2023-02-03T05:21:14.622Z,0.30
2023-02-03T05:23:42.026Z,0.30
2023-02-03T05:26:09.220Z,0.30
2023-02-03T05:28:36.342Z,0.40
2023-02-03T05:31:04.167Z,0.40
2023-02-03T05:33:31.440Z,0.47
2023-02-03T05:35:58.667Z,0.60
2023-02-03T05:38:26.003Z,0.45
2023-02-03T05:41:12.096Z,0.68
2023-02-03T05:43:39.378Z,0.40
2023-02-03T05:46:07.586Z,0.43
2023-02-03T05:48:35.060Z,0.40
2023-02-03T05:51:02.243Z,0.70
2023-02-03T05:53:29.406Z,0.70
2023-02-03T05:55:56.624Z,0.50
2023-02-03T05:58:23.800Z,0.88
2023-02-03T06:00:51.879Z,0.40
2023-02-03T06:03:19.155Z,0.40
2023-02-03T06:05:46.408Z,0.40
2023-02-03T06:08:13.591Z,0.40
2023-02-03T06:10:40.787Z,0.63
2023-02-03T06:13:13.192Z,0.47
2023-02-03T06:15:40.814Z,0.30
2023-02-03T06:18:08.508Z,0.50
2023-02-03T06:20:36.048Z,0.40
2023-02-03T06:23:03.990Z,0.90
2023-02-03T06:25:32.716Z,0.40
2023-02-03T06:28:00.135Z,0.30
2023-02-03T06:30:27.710Z,0.40
2023-02-03T06:32:55.629Z,0.40
2023-02-03T06:35:22.792Z,0.30
2023-02-03T06:37:50.014Z,0.30
2023-02-03T06:40:17.264Z,0.40
2023-02-03T06:42:48.465Z,0.40
2023-02-03T06:45:16.092Z,0.50
2023-02-03T06:47:44.655Z,0.60
2023-02-03T06:50:16.807Z,0.30
2023-02-03T06:52:44.424Z,0.30
2023-02-03T06:55:11.752Z,0.30
2023-02-03T06:57:48.836Z,0.22
2023-02-03T07:00:19.214Z,0.40
2023-02-03T07:02:47.122Z,0.30
2023-02-03T07:05:14.394Z,0.32
2023-02-03T07:07:41.561Z,0.38
2023-02-03T07:10:09.166Z,0.40
2023-02-03T07:12:36.922Z,0.40
2023-02-03T07:15:05.458Z,0.60
2023-02-03T07:17:33.234Z,0.38
2023-02-03T07:20:00.870Z,0.50
2023-02-03T07:22:28.072Z,0.98
2023-02-03T07:24:55.265Z,0.55
2023-02-03T07:27:22.485Z,0.90
2023-02-03T07:29:49.700Z,0.80
2023-02-03T07:32:16.932Z,0.50
2023-02-03T07:34:44.073Z,0.40
2023-02-03T07:37:11.223Z,0.30
2023-02-03T07:39:38.375Z,0.43
2023-02-03T07:42:05.673Z,0.40
2023-02-03T07:44:37.330Z,0.40
2023-02-03T07:47:04.618Z,0.40
2023-02-03T07:49:31.763Z,0.38
2023-02-03T07:51:58.991Z,0.50
2023-02-03T07:54:26.175Z,0.40
2023-02-03T07:56:54.161Z,0.40
2023-02-03T07:59:21.649Z,0.45
2023-02-03T08:01:48.860Z,0.40
2023-02-03T08:04:17.397Z,0.60
2023-02-03T08:06:44.563Z,0.57
2023-02-03T08:09:11.761Z,0.70
2023-02-03T08:11:38.946Z,0.47
2023-02-03T08:14:06.235Z,1.05
2023-02-03T08:16:33.520Z,0.75
2023-02-03T08:19:00.725Z,0.68
2023-02-03T08:21:27.870Z,0.70
2023-02-03T08:23:55.586Z,0.75
2023-02-03T08:26:23.159Z,0.65
2023-02-03T08:28:50.953Z,0.80
2023-02-03T08:31:18.624Z,0.40
2023-02-03T08:33:45.935Z,0.45
2023-02-03T08:36:13.332Z,0.60
2023-02-03T08:38:41.979Z,0.70
2023-02-03T08:41:11.535Z,0.85
2023-02-03T08:43:38.876Z,0.90
2023-02-03T08:46:08.216Z,1.50
2023-02-03T08:48:36.009Z,0.85
2023-02-03T08:51:09.035Z,0.88
2023-02-03T08:53:36.307Z,0.82
2023-02-03T08:56:08.607Z,1.17
2023-02-03T08:58:35.866Z,1.70
2023-02-03T09:01:15.781Z,1.98
2023-02-03T09:03:44.624Z,3.30
2023-02-03T09:06:13.285Z,2.42
2023-02-03T09:08:40.556Z,2.28
2023-02-03T09:11:15.867Z,1.92
2023-02-03T09:13:46.067Z,1.30
2023-02-03T09:16:17.256Z,1.75
2023-02-03T09:18:45.930Z,1.60
2023-02-03T09:21:32.055Z,1.17
2023-02-03T09:24:02.781Z,0.82
2023-02-03T09:26:30.043Z,0.80
2023-02-03T09:28:57.640Z,0.95
2023-02-03T09:31:24.953Z,0.57
2023-02-03T09:33:52.184Z,0.80
2023-02-03T09:36:19.382Z,0.63
2023-02-03T09:38:46.611Z,0.70
2023-02-03T09:41:38.033Z,0.80
2023-02-03T09:44:15.307Z,0.60
2023-02-03T09:46:46.605Z,0.60
2023-02-03T09:49:19.660Z,0.52
2023-02-03T09:52:16.154Z,0.77
2023-02-03T09:55:04.694Z,0.63
2023-02-03T09:57:38.182Z,0.70
2023-02-03T10:00:17.389Z,0.70
2023-02-03T10:02:53.480Z,0.95
2023-02-03T10:05:57.498Z,0.90
2023-02-03T10:08:43.305Z,1.50
2023-02-03T10:11:43.016Z,1.10
2023-02-03T10:14:45.313Z,1.02
2023-02-03T10:17:12.599Z,0.60
2023-02-03T10:19:48.050Z,0.73
2023-02-03T10:22:42.034Z,0.70
2023-02-03T10:25:24.859Z,0.52
2023-02-03T10:28:01.616Z,0.55
2023-02-03T10:30:34.501Z,0.80
2023-02-03T10:33:11.126Z,0.73
2023-02-03T10:35:57.553Z,0.57
2023-02-03T10:38:52.219Z,0.52
2023-02-03T10:41:21.058Z,0.70
2023-02-03T10:43:54.801Z,0.50
2023-02-03T10:46:35.469Z,0.60
2023-02-03T10:49:02.893Z,0.63
2023-02-03T10:51:39.254Z,0.50
2023-02-03T10:54:27.629Z,0.90
2023-02-03T10:56:57.845Z,0.70
2023-02-03T10:59:31.196Z,0.60
2023-02-03T11:01:59.018Z,1.00
2023-02-03T11:04:31.868Z,0.90
2023-02-03T11:07:02.189Z,0.55
2023-02-03T11:09:41.233Z,0.75
2023-02-03T11:12:17.407Z,0.80
2023-02-03T11:14:47.483Z,0.70
2023-02-03T11:17:24.542Z,0.70
2023-02-03T11:19:54.569Z,0.80
2023-02-03T11:22:33.788Z,0.80
2023-02-03T11:25:04.112Z,0.55
2023-02-03T11:27:33.250Z,0.60
2023-02-03T11:30:24.842Z,0.70
2023-02-03T11:32:53.041Z,0.60
2023-02-03T11:35:26.050Z,0.80
2023-02-03T11:37:59.616Z,0.80
2023-02-03T11:40:29.059Z,0.70
2023-02-03T11:42:56.453Z,0.50
2023-02-03T11:45:34.051Z,0.60
2023-02-03T11:48:18.276Z,0.70
2023-02-03T11:50:48.485Z,0.63
2023-02-03T11:53:15.664Z,0.70
2023-02-03T11:56:26.549Z,1.63
2023-02-03T11:59:14.649Z,0.80
2023-02-03T12:02:23.361Z,0.60
2023-02-03T12:05:19.255Z,0.93
2023-02-03T12:08:07.782Z,0.80
2023-02-03T12:10:53.087Z,0.60
2023-02-03T12:13:32.620Z,1.58
2023-02-03T12:16:42.044Z,0.60
2023-02-03T12:19:29.952Z,1.00
2023-02-03T12:22:10.119Z,0.60
2023-02-03T12:24:45.603Z,0.70
2023-02-03T12:27:24.881Z,0.70
2023-02-03T12:29:59.621Z,0.55
2023-02-03T12:32:36.731Z,0.77
2023-02-03T12:35:23.295Z,0.60
2023-02-03T12:38:03.058Z,0.95
2023-02-03T12:40:59.779Z,0.50
2023-02-03T12:43:49.873Z,0.85
2023-02-03T12:46:26.359Z,0.70
2023-02-03T12:49:12.506Z,1.10
2023-02-03T12:51:54.724Z,0.68
2023-02-03T12:54:55.197Z,0.68
2023-02-03T12:57:44.391Z,0.50
2023-02-03T13:00:33.257Z,0.95
2023-02-03T13:03:15.280Z,0.60
2023-02-03T13:06:06.040Z,1.20
2023-02-03T13:09:02.897Z,0.70
2023-02-03T13:11:51.665Z,0.50
2023-02-03T13:14:34.211Z,0.70
2023-02-03T13:17:25.428Z,0.55
2023-02-03T13:20:04.933Z,0.60
2023-02-03T13:22:32.718Z,0.80
2023-02-03T13:25:18.411Z,0.52
2023-02-03T13:28:16.728Z,0.60
2023-02-03T13:30:53.294Z,0.80
2023-02-03T13:33:52.326Z,0.90
2023-02-03T13:36:50.099Z,0.68
2023-02-03T13:39:47.818Z,0.70
2023-02-03T13:42:28.974Z,0.73
2023-02-03T13:45:15.145Z,0.60
2023-02-03T13:47:49.885Z,0.50
2023-02-03T13:50:27.370Z,0.50
2023-02-03T13:53:01.793Z,0.40
2023-02-03T13:55:52.386Z,0.80
2023-02-03T13:58:30.303Z,1.00
2023-02-03T14:01:03.573Z,0.65
2023-02-03T14:03:31.191Z,0.80
2023-02-03T14:06:01.229Z,0.60
2023-02-03T14:08:28.466Z,0.82
2023-02-03T14:11:33.346Z,0.55
2023-02-03T14:14:09.780Z,0.70
2023-02-03T14:16:53.408Z,0.85
2023-02-03T14:21:54.306Z,0.50
2023-02-03T14:24:22.464Z,0.60
2023-02-03T14:26:53.089Z,0.75
2023-02-03T14:29:37.542Z,0.40
2023-02-03T14:32:08.092Z,0.82
2023-02-03T14:34:44.472Z,0.70
2023-02-03T14:37:29.026Z,0.52
2023-02-03T14:40:02.126Z,0.70
2023-02-03T14:42:49.372Z,0.60
2023-02-03T14:45:31.777Z,0.52
2023-02-03T14:48:11.347Z,0.70
2023-02-03T14:51:07.960Z,0.60
2023-02-03T14:53:51.106Z,0.50
2023-02-03T14:57:03.081Z,0.55
2023-02-03T14:59:49.649Z,0.60
2023-02-03T15:02:26.509Z,0.52
2023-02-03T15:05:13.883Z,0.60
2023-02-03T15:07:48.660Z,0.77
2023-02-03T15:10:21.626Z,0.52
2023-02-03T15:12:54.284Z,0.50
2023-02-03T15:15:22.214Z,0.65
2023-02-03T15:17:51.727Z,0.70
2023-02-03T15:20:27.890Z,0.63
2023-02-03T15:22:55.267Z,0.70
2023-02-03T15:25:25.629Z,0.82
2023-02-03T15:27:53.199Z,0.60
2023-02-03T15:30:28.730Z,0.70
2023-02-03T15:33:05.898Z,0.80
2023-02-03T15:35:36.674Z,0.70
2023-02-03T15:38:09.076Z,0.40
2023-02-03T15:40:44.149Z,0.47
2023-02-03T15:43:17.875Z,0.70
2023-02-03T15:45:56.714Z,0.73
2023-02-03T15:49:03.704Z,0.60
2023-02-03T15:51:39.092Z,0.50
2023-02-03T15:54:31.471Z,0.80
2023-02-03T15:57:05.544Z,0.50
2023-02-03T15:59:36.004Z,0.75
2023-02-03T16:02:14.187Z,0.80
2023-02-03T16:04:41.726Z,0.88
2023-02-03T16:07:19.467Z,1.77
2023-02-03T16:09:46.903Z,0.80
2023-02-03T16:12:18.726Z,0.90
2023-02-03T16:14:46.451Z,0.90
2023-02-03T16:17:57.229Z,1.00
2023-02-03T16:20:28.685Z,1.75
2023-02-03T16:23:19.291Z,1.10
2023-02-03T16:26:02.949Z,0.90
2023-02-03T16:28:48.509Z,0.90
2023-02-03T16:31:36.410Z,1.42
2023-02-03T16:34:33.530Z,0.90
2023-02-03T16:37:19.754Z,1.00
2023-02-03T16:40:05.561Z,1.10
2023-02-03T16:42:58.995Z,0.80
2023-02-03T16:45:44.942Z,0.93
2023-02-03T16:48:32.091Z,0.80
2023-02-03T16:51:08.026Z,0.93
2023-02-03T16:53:35.318Z,1.02
2023-02-03T16:56:04.806Z,1.00
2023-02-03T16:58:32.186Z,1.10
2023-02-03T17:01:03.066Z,1.50
2023-02-03T17:03:32.833Z,1.05
2023-02-03T17:06:07.502Z,0.90
2023-02-03T17:08:35.589Z,1.15
2023-02-03T17:11:05.492Z,1.50
2023-02-03T17:13:33.319Z,1.73
2023-02-03T17:16:01.032Z,1.65
2023-02-03T17:18:28.464Z,1.20
2023-02-03T17:20:58.059Z,1.48
2023-02-03T17:23:26.124Z,1.40
2023-02-03T17:25:53.317Z,1.88
2023-02-03T17:28:20.742Z,1.23
2023-02-03T17:31:05.718Z,0.90
2023-02-03T17:36:07.665Z,1.13
2023-02-03T17:57:41.206Z,1.95
2023-02-03T18:00:10.215Z,1.25
2023-02-03T18:02:40.565Z,1.05
2023-02-03T18:05:08.058Z,1.15
2023-02-03T18:07:35.335Z,1.30
2023-02-03T18:10:02.629Z,1.60
2023-02-03T18:12:30.989Z,1.55
2023-02-03T18:14:58.977Z,1.50
2023-02-03T18:17:26.372Z,1.38
2023-02-03T18:19:59.632Z,1.02
2023-02-03T18:22:26.936Z,1.02
2023-02-03T18:24:55.556Z,1.95
2023-02-03T18:27:22.861Z,1.27
2023-02-03T18:29:50.286Z,1.10
2023-02-03T18:32:17.552Z,1.65
2023-02-03T18:34:44.770Z,0.80
2023-02-03T18:37:12.377Z,1.20
2023-02-03T18:39:39.651Z,1.55
2023-02-03T18:42:07.416Z,0.98
2023-02-03T18:44:34.917Z,1.08
2023-02-03T18:47:07.092Z,0.90
2023-02-03T18:49:37.853Z,1.08
2023-02-03T18:52:05.446Z,0.90
2023-02-03T18:54:32.707Z,1.13
2023-02-03T18:57:00.395Z,1.17
2023-02-03T18:59:27.680Z,1.20
2023-02-03T19:01:54.841Z,0.75
2023-02-03T19:04:22.581Z,0.82
2023-02-03T19:06:50.022Z,1.38
2023-02-03T19:09:19.319Z,1.25
2023-02-03T19:11:46.665Z,0.98
2023-02-03T19:14:16.462Z,0.80
2023-02-03T19:16:44.185Z,1.02
2023-02-03T19:19:14.109Z,0.70
2023-02-03T19:21:41.398Z,1.35
2023-02-03T19:24:09.364Z,1.38
2023-02-03T19:26:36.715Z,1.88
2023-02-03T19:29:04.043Z,0.98
2023-02-03T19:31:31.587Z,0.90
2023-02-03T19:34:02.490Z,1.30
2023-02-03T19:36:30.580Z,0.90
2023-02-03T19:38:58.023Z,1.00
2023-02-03T19:41:27.937Z,0.90
2023-02-03T19:43:55.108Z,0.90
2023-02-03T19:46:22.402Z,0.90
2023-02-03T19:48:49.794Z,1.10
2023-02-03T19:51:17.463Z,1.02
2023-02-03T19:53:44.798Z,0.70
2023-02-03T19:56:12.371Z,0.70
2023-02-03T19:58:39.618Z,1.48
2023-02-03T20:01:07.174Z,1.40
2023-02-03T20:03:34.549Z,1.23
2023-02-03T20:06:01.835Z,1.20
2023-02-03T20:08:29.211Z,1.00
2023-02-03T20:10:56.404Z,1.00
2023-02-03T20:13:23.658Z,0.80
2023-02-03T20:15:50.882Z,0.70
2023-02-03T20:18:18.194Z,1.13
2023-02-03T20:20:53.713Z,1.17
2023-02-03T20:23:21.753Z,1.20
2023-02-03T20:25:50.361Z,1.20
2023-02-03T20:28:17.819Z,1.17
2023-02-03T20:30:45.875Z,1.23
2023-02-03T20:33:13.691Z,1.30
2023-02-03T20:35:40.913Z,1.50
2023-02-03T20:38:08.240Z,1.58
2023-02-03T20:40:35.566Z,1.52
2023-02-03T20:43:13.468Z,1.10
2023-02-03T20:45:40.707Z,1.92
2023-02-03T20:48:11.903Z,1.63
2023-02-03T20:50:42.559Z,2.38
2023-02-03T20:53:37.162Z,2.03
2023-02-03T20:56:13.050Z,2.22
2023-02-03T20:58:41.760Z,1.75
2023-02-03T21:01:21.988Z,1.80
2023-02-03T21:04:07.746Z,1.98
2023-02-03T21:06:35.817Z,2.40
2023-02-03T21:09:17.693Z,2.10
2023-02-03T21:11:45.090Z,2.35
2023-02-03T21:14:29.194Z,2.63
2023-02-03T21:16:56.399Z,2.17
2023-02-03T21:19:31.572Z,2.20
2023-02-03T21:21:59.785Z,2.22
2023-02-03T21:24:30.229Z,2.47
2023-02-03T21:26:59.291Z,2.30
2023-02-03T21:29:33.737Z,2.22
2023-02-03T21:34:31.099Z,3.35
2023-02-03T21:37:07.211Z,3.10
2023-02-03T21:39:34.865Z,2.97
2023-02-03T21:42:39.950Z,2.55
2023-02-03T21:45:24.616Z,2.88
2023-02-03T21:47:53.054Z,2.20
2023-02-03T21:50:40.851Z,2.50
2023-02-03T21:53:07.995Z,2.40
2023-02-03T21:55:40.449Z,3.03
2023-02-03T21:58:31.541Z,3.22
2023-02-03T22:01:00.705Z,4.03
2023-02-03T22:03:40.030Z,2.88
2023-02-03T22:06:13.522Z,3.30
2023-02-03T22:08:49.387Z,2.72
2023-02-03T22:11:18.718Z,2.97
2023-02-03T22:13:47.569Z,3.67
2023-02-03T22:16:17.334Z,3.95
2023-02-03T22:18:46.392Z,3.95
2023-02-03T22:21:14.632Z,2.65
2023-02-03T22:23:42.744Z,3.53
2023-02-03T22:26:11.518Z,3.00
2023-02-03T22:28:39.326Z,3.10
2023-02-03T22:31:08.272Z,3.28
2023-02-03T22:33:36.284Z,4.05
2023-02-03T22:36:06.558Z,3.50
2023-02-03T22:38:38.171Z,4.15
2023-02-03T22:41:06.331Z,3.50
2023-02-03T22:43:33.842Z,2.58
2023-02-03T22:46:04.891Z,3.53
2023-02-03T22:48:32.154Z,3.80
2023-02-03T22:50:59.482Z,2.85
2023-02-03T22:53:27.139Z,3.60
2023-02-03T22:55:54.528Z,3.58
2023-02-03T22:58:21.882Z,2.90
2023-02-03T23:00:49.097Z,4.15
2023-02-03T23:03:16.664Z,4.07
2023-02-03T23:05:44.018Z,3.83
2023-02-03T23:08:11.312Z,3.95
2023-02-03T23:10:38.630Z,3.60
2023-02-03T23:13:06.439Z,4.53
2023-02-03T23:15:33.702Z,4.00
2023-02-03T23:18:00.935Z,4.40
2023-02-03T23:20:28.427Z,3.90
2023-02-03T23:22:55.738Z,3.92
2023-02-03T23:25:22.958Z,3.58
2023-02-03T23:27:50.336Z,4.53
2023-02-03T23:30:17.573Z,5.57
2023-02-03T23:32:44.861Z,3.83
2023-02-03T23:35:30.341Z,4.00
2023-02-03T23:37:57.527Z,3.42
2023-02-03T23:40:24.716Z,3.42
2023-02-03T23:42:51.959Z,5.80
2023-02-03T23:45:19.399Z,3.92
2023-02-03T23:47:46.820Z,4.28
2023-02-03T23:50:16.320Z,4.68
2023-02-03T23:52:43.703Z,3.75
2023-02-03T23:55:14.417Z,4.50
2023-02-03T23:57:42.774Z,3.67
